sensor_id;sensor_type;location;lat;lon;timestamp;temperature;humidity
71098;SHT35;58754;47.622;-2.986;2023-07-20T00:00:29;24.62;53.77
71098;SHT35;58754;47.622;-2.986;2023-07-20T00:03:10;24.59;53.76
71098;SHT35;58754;47.622;-2.986;2023-07-20T00:05:38;24.57;53.71
71098;SHT35;58754;47.622;-2.986;2023-07-20T00:08:04;24.59;53.77
71098;SHT35;58754;47.622;-2.986;2023-07-20T00:10:29;24.57;53.79
71098;SHT35;58754;47.622;-2.986;2023-07-20T00:12:55;24.60;53.76
71098;SHT35;58754;47.622;-2.986;2023-07-20T00:15:21;24.56;53.77
71098;SHT35;58754;47.622;-2.986;2023-07-20T00:17:47;24.57;53.72
71098;SHT35;58754;47.622;-2.986;2023-07-20T00:20:12;24.56;53.74
71098;SHT35;58754;47.622;-2.986;2023-07-20T00:22:38;24.57;53.72
71098;SHT35;58754;47.622;-2.986;2023-07-20T00:25:04;24.57;53.70
71098;SHT35;58754;47.622;-2.986;2023-07-20T00:27:30;24.56;53.72
71098;SHT35;58754;47.622;-2.986;2023-07-20T00:29:55;24.56;53.69
71098;SHT35;58754;47.622;-2.986;2023-07-20T00:32:21;24.55;53.69
71098;SHT35;58754;47.622;-2.986;2023-07-20T00:34:47;24.56;53.69
71098;SHT35;58754;47.622;-2.986;2023-07-20T00:37:13;24.57;53.66
71098;SHT35;58754;47.622;-2.986;2023-07-20T00:39:38;24.56;53.71
71098;SHT35;58754;47.622;-2.986;2023-07-20T00:42:04;24.55;53.68
71098;SHT35;58754;47.622;-2.986;2023-07-20T00:44:30;24.53;53.68
71098;SHT35;58754;47.622;-2.986;2023-07-20T00:46:56;24.57;53.69
71098;SHT35;58754;47.622;-2.986;2023-07-20T00:49:22;24.56;53.67
71098;SHT35;58754;47.622;-2.986;2023-07-20T00:51:49;24.53;53.67
71098;SHT35;58754;47.622;-2.986;2023-07-20T00:54:16;24.55;53.64
71098;SHT35;58754;47.622;-2.986;2023-07-20T00:56:42;24.55;53.67
71098;SHT35;58754;47.622;-2.986;2023-07-20T00:59:09;24.53;53.63
71098;SHT35;58754;47.622;-2.986;2023-07-20T01:01:35;24.55;53.62
71098;SHT35;58754;47.622;-2.986;2023-07-20T01:04:01;24.53;53.61
71098;SHT35;58754;47.622;-2.986;2023-07-20T01:06:41;24.55;53.61
71098;SHT35;58754;47.622;-2.986;2023-07-20T01:09:26;24.52;53.57
71098;SHT35;58754;47.622;-2.986;2023-07-20T01:11:54;24.53;53.55
71098;SHT35;58754;47.622;-2.986;2023-07-20T01:14:23;24.51;53.58
71098;SHT35;58754;47.622;-2.986;2023-07-20T01:16:51;24.51;53.59
71098;SHT35;58754;47.622;-2.986;2023-07-20T01:19:17;24.51;53.59
71098;SHT35;58754;47.622;-2.986;2023-07-20T01:21:57;24.51;53.58
71098;SHT35;58754;47.622;-2.986;2023-07-20T01:24:32;24.52;53.55
71098;SHT35;58754;47.622;-2.986;2023-07-20T01:33:05;24.51;53.52
71098;SHT35;58754;47.622;-2.986;2023-07-20T01:35:34;24.48;53.55
71098;SHT35;58754;47.622;-2.986;2023-07-20T01:38:00;24.51;53.52
71098;SHT35;58754;47.622;-2.986;2023-07-20T01:40:26;24.49;53.51
71098;SHT35;58754;47.622;-2.986;2023-07-20T01:42:52;24.51;53.57
71098;SHT35;58754;47.622;-2.986;2023-07-20T01:45:19;24.48;53.50
71098;SHT35;58754;47.622;-2.986;2023-07-20T01:47:45;24.49;53.49
71098;SHT35;58754;47.622;-2.986;2023-07-20T01:50:11;24.49;53.47
71098;SHT35;58754;47.622;-2.986;2023-07-20T01:52:36;24.51;53.55
71098;SHT35;58754;47.622;-2.986;2023-07-20T01:55:02;24.48;53.50
71098;SHT35;58754;47.622;-2.986;2023-07-20T01:57:29;24.46;53.48
71098;SHT35;58754;47.622;-2.986;2023-07-20T01:59:55;24.48;53.49
71098;SHT35;58754;47.622;-2.986;2023-07-20T02:02:22;24.46;53.50
71098;SHT35;58754;47.622;-2.986;2023-07-20T02:04:48;24.48;53.50
71098;SHT35;58754;47.622;-2.986;2023-07-20T02:07:14;24.45;53.43
71098;SHT35;58754;47.622;-2.986;2023-07-20T02:09:39;24.45;53.48
71098;SHT35;58754;47.622;-2.986;2023-07-20T02:12:05;24.45;53.43
71098;SHT35;58754;47.622;-2.986;2023-07-20T02:14:31;24.43;53.45
71098;SHT35;58754;47.622;-2.986;2023-07-20T02:16:57;24.45;53.44
71098;SHT35;58754;47.622;-2.986;2023-07-20T02:19:25;24.43;53.41
71098;SHT35;58754;47.622;-2.986;2023-07-20T02:21:52;24.45;53.45
71098;SHT35;58754;47.622;-2.986;2023-07-20T02:24:18;24.43;53.42
71098;SHT35;58754;47.622;-2.986;2023-07-20T02:26:44;24.46;53.45
71098;SHT35;58754;47.622;-2.986;2023-07-20T02:29:10;24.43;53.43
71098;SHT35;58754;47.622;-2.986;2023-07-20T02:31:38;24.43;53.39
71098;SHT35;58754;47.622;-2.986;2023-07-20T02:34:07;24.43;53.39
71098;SHT35;58754;47.622;-2.986;2023-07-20T02:36:35;24.43;53.39
71098;SHT35;58754;47.622;-2.986;2023-07-20T02:39:01;24.43;53.49
71098;SHT35;58754;47.622;-2.986;2023-07-20T02:41:32;24.40;53.42
71098;SHT35;58754;47.622;-2.986;2023-07-20T02:43:58;24.42;53.45
71098;SHT35;58754;47.622;-2.986;2023-07-20T02:46:24;24.42;53.48
71098;SHT35;58754;47.622;-2.986;2023-07-20T02:48:50;24.40;53.39
71098;SHT35;58754;47.622;-2.986;2023-07-20T02:51:16;24.40;53.42
71098;SHT35;58754;47.622;-2.986;2023-07-20T02:53:41;24.42;53.43
71098;SHT35;58754;47.622;-2.986;2023-07-20T02:56:07;24.42;53.41
71098;SHT35;58754;47.622;-2.986;2023-07-20T02:58:34;24.42;53.42
71098;SHT35;58754;47.622;-2.986;2023-07-20T03:01:03;24.40;53.40
71098;SHT35;58754;47.622;-2.986;2023-07-20T03:03:28;24.39;53.41
71098;SHT35;58754;47.622;-2.986;2023-07-20T03:05:54;24.40;53.45
71098;SHT35;58754;47.622;-2.986;2023-07-20T03:08:22;24.39;53.45
71098;SHT35;58754;47.622;-2.986;2023-07-20T03:10:47;24.38;53.40
71098;SHT35;58754;47.622;-2.986;2023-07-20T03:13:13;24.36;53.42
71098;SHT35;58754;47.622;-2.986;2023-07-20T03:15:39;24.36;53.43
71098;SHT35;58754;47.622;-2.986;2023-07-20T03:18:05;24.39;53.42
71098;SHT35;58754;47.622;-2.986;2023-07-20T03:20:31;24.39;53.43
71098;SHT35;58754;47.622;-2.986;2023-07-20T03:22:57;24.38;53.45
71098;SHT35;58754;47.622;-2.986;2023-07-20T03:25:22;24.39;53.39
71098;SHT35;58754;47.622;-2.986;2023-07-20T03:27:48;24.35;53.42
71098;SHT35;58754;47.622;-2.986;2023-07-20T03:30:14;24.38;53.45
71098;SHT35;58754;47.622;-2.986;2023-07-20T03:32:40;24.36;53.41
71098;SHT35;58754;47.622;-2.986;2023-07-20T03:35:06;24.36;53.46
71098;SHT35;58754;47.622;-2.986;2023-07-20T03:37:32;24.36;53.42
71098;SHT35;58754;47.622;-2.986;2023-07-20T03:40:00;24.33;53.44
71098;SHT35;58754;47.622;-2.986;2023-07-20T03:42:26;24.35;53.45
71098;SHT35;58754;47.622;-2.986;2023-07-20T03:44:51;24.35;53.48
71098;SHT35;58754;47.622;-2.986;2023-07-20T03:47:17;24.35;53.44
71098;SHT35;58754;47.622;-2.986;2023-07-20T03:49:43;24.36;53.43
71098;SHT35;58754;47.622;-2.986;2023-07-20T03:52:09;24.33;53.46
71098;SHT35;58754;47.622;-2.986;2023-07-20T03:54:34;24.35;53.45
71098;SHT35;58754;47.622;-2.986;2023-07-20T03:57:00;24.33;53.47
71098;SHT35;58754;47.622;-2.986;2023-07-20T03:59:26;24.35;53.44
71098;SHT35;58754;47.622;-2.986;2023-07-20T04:01:51;24.35;53.46
71098;SHT35;58754;47.622;-2.986;2023-07-20T04:04:17;24.35;53.48
71098;SHT35;58754;47.622;-2.986;2023-07-20T04:06:43;24.31;53.46
71098;SHT35;58754;47.622;-2.986;2023-07-20T04:09:12;24.35;53.47
71098;SHT35;58754;47.622;-2.986;2023-07-20T04:11:38;24.33;53.47
71098;SHT35;58754;47.622;-2.986;2023-07-20T04:14:04;24.33;53.51
71098;SHT35;58754;47.622;-2.986;2023-07-20T04:16:29;24.32;53.50
71098;SHT35;58754;47.622;-2.986;2023-07-20T04:18:56;24.32;53.45
71098;SHT35;58754;47.622;-2.986;2023-07-20T04:21:22;24.31;53.47
71098;SHT35;58754;47.622;-2.986;2023-07-20T04:23:48;24.29;53.50
71098;SHT35;58754;47.622;-2.986;2023-07-20T04:26:13;24.31;53.49
71098;SHT35;58754;47.622;-2.986;2023-07-20T04:28:40;24.31;53.48
71098;SHT35;58754;47.622;-2.986;2023-07-20T04:31:15;24.31;53.48
71098;SHT35;58754;47.622;-2.986;2023-07-20T04:33:41;24.29;53.52
71098;SHT35;58754;47.622;-2.986;2023-07-20T04:36:07;24.31;53.49
71098;SHT35;58754;47.622;-2.986;2023-07-20T04:38:33;24.29;53.45
71098;SHT35;58754;47.622;-2.986;2023-07-20T04:40:59;24.28;53.49
71098;SHT35;58754;47.622;-2.986;2023-07-20T04:43:25;24.28;53.48
71098;SHT35;58754;47.622;-2.986;2023-07-20T04:45:51;24.29;53.52
71098;SHT35;58754;47.622;-2.986;2023-07-20T04:48:16;24.28;53.44
71098;SHT35;58754;47.622;-2.986;2023-07-20T04:50:44;24.28;53.45
71098;SHT35;58754;47.622;-2.986;2023-07-20T04:53:13;24.26;53.44
71098;SHT35;58754;47.622;-2.986;2023-07-20T04:55:40;24.26;53.49
71098;SHT35;58754;47.622;-2.986;2023-07-20T04:58:06;24.26;53.47
71098;SHT35;58754;47.622;-2.986;2023-07-20T05:00:33;24.26;53.46
71098;SHT35;58754;47.622;-2.986;2023-07-20T05:02:59;24.25;53.45
71098;SHT35;58754;47.622;-2.986;2023-07-20T05:05:25;24.26;53.43
71098;SHT35;58754;47.622;-2.986;2023-07-20T05:07:50;24.26;53.46
71098;SHT35;58754;47.622;-2.986;2023-07-20T05:10:17;24.25;53.49
71098;SHT35;58754;47.622;-2.986;2023-07-20T05:12:43;24.26;53.45
71098;SHT35;58754;47.622;-2.986;2023-07-20T05:15:09;24.25;53.48
71098;SHT35;58754;47.622;-2.986;2023-07-20T05:17:35;24.28;53.44
71098;SHT35;58754;47.622;-2.986;2023-07-20T05:20:01;24.24;53.44
71098;SHT35;58754;47.622;-2.986;2023-07-20T05:22:26;24.24;53.44
71098;SHT35;58754;47.622;-2.986;2023-07-20T05:24:52;24.24;53.48
71098;SHT35;58754;47.622;-2.986;2023-07-20T05:27:18;24.24;53.50
71098;SHT35;58754;47.622;-2.986;2023-07-20T05:29:44;24.25;53.46
71098;SHT35;58754;47.622;-2.986;2023-07-20T05:32:10;24.24;53.48
71098;SHT35;58754;47.622;-2.986;2023-07-20T05:34:36;24.22;53.46
71098;SHT35;58754;47.622;-2.986;2023-07-20T05:37:01;24.22;53.46
71098;SHT35;58754;47.622;-2.986;2023-07-20T05:39:27;24.21;53.48
71098;SHT35;58754;47.622;-2.986;2023-07-20T05:41:53;24.25;53.52
71098;SHT35;58754;47.622;-2.986;2023-07-20T05:44:18;24.22;53.47
71098;SHT35;58754;47.622;-2.986;2023-07-20T05:46:44;24.22;53.47
71098;SHT35;58754;47.622;-2.986;2023-07-20T05:49:10;24.22;53.48
71098;SHT35;58754;47.622;-2.986;2023-07-20T05:51:35;24.21;53.44
71098;SHT35;58754;47.622;-2.986;2023-07-20T05:54:01;24.22;53.45
71098;SHT35;58754;47.622;-2.986;2023-07-20T05:56:27;24.22;53.48
71098;SHT35;58754;47.622;-2.986;2023-07-20T05:58:53;24.21;53.47
71098;SHT35;58754;47.622;-2.986;2023-07-20T06:01:18;24.24;53.46
71098;SHT35;58754;47.622;-2.986;2023-07-20T06:03:44;24.21;53.51
71098;SHT35;58754;47.622;-2.986;2023-07-20T06:06:10;24.21;53.53
71098;SHT35;58754;47.622;-2.986;2023-07-20T06:08:37;24.21;53.49
71098;SHT35;58754;47.622;-2.986;2023-07-20T06:11:03;24.20;53.50
71098;SHT35;58754;47.622;-2.986;2023-07-20T06:13:29;24.20;53.49
71098;SHT35;58754;47.622;-2.986;2023-07-20T06:15:55;24.20;53.53
71098;SHT35;58754;47.622;-2.986;2023-07-20T06:18:22;24.20;53.51
71098;SHT35;58754;47.622;-2.986;2023-07-20T06:20:49;24.20;53.51
71098;SHT35;58754;47.622;-2.986;2023-07-20T06:23:17;24.18;53.55
71098;SHT35;58754;47.622;-2.986;2023-07-20T06:25:42;24.18;53.56
71098;SHT35;58754;47.622;-2.986;2023-07-20T06:28:08;24.17;53.56
71098;SHT35;58754;47.622;-2.986;2023-07-20T06:30:34;24.20;53.57
71098;SHT35;58754;47.622;-2.986;2023-07-20T06:33:00;24.20;53.56
71098;SHT35;58754;47.622;-2.986;2023-07-20T06:35:25;24.20;53.56
71098;SHT35;58754;47.622;-2.986;2023-07-20T06:37:52;24.17;53.60
71098;SHT35;58754;47.622;-2.986;2023-07-20T06:40:17;24.18;53.58
71098;SHT35;58754;47.622;-2.986;2023-07-20T06:42:44;24.18;53.61
71098;SHT35;58754;47.622;-2.986;2023-07-20T06:45:09;24.20;53.60
71098;SHT35;58754;47.622;-2.986;2023-07-20T06:47:38;24.18;53.58
71098;SHT35;58754;47.622;-2.986;2023-07-20T06:50:08;24.20;53.63
71098;SHT35;58754;47.622;-2.986;2023-07-20T06:52:34;24.17;53.63
71098;SHT35;58754;47.622;-2.986;2023-07-20T06:55:00;24.18;53.65
71098;SHT35;58754;47.622;-2.986;2023-07-20T06:57:26;24.20;53.67
71098;SHT35;58754;47.622;-2.986;2023-07-20T06:59:51;24.15;53.68
71098;SHT35;58754;47.622;-2.986;2023-07-20T07:02:19;24.17;53.68
71098;SHT35;58754;47.622;-2.986;2023-07-20T07:04:45;24.21;53.71
71098;SHT35;58754;47.622;-2.986;2023-07-20T07:07:14;24.18;53.68
71098;SHT35;58754;47.622;-2.986;2023-07-20T07:09:40;24.18;53.71
71098;SHT35;58754;47.622;-2.986;2023-07-20T07:12:06;24.17;53.73
71098;SHT35;58754;47.622;-2.986;2023-07-20T07:14:31;24.15;53.70
71098;SHT35;58754;47.622;-2.986;2023-07-20T07:16:57;24.15;53.72
71098;SHT35;58754;47.622;-2.986;2023-07-20T07:19:23;24.15;53.69
71098;SHT35;58754;47.622;-2.986;2023-07-20T07:21:48;24.14;53.71
71098;SHT35;58754;47.622;-2.986;2023-07-20T07:24:14;24.15;53.79
71098;SHT35;58754;47.622;-2.986;2023-07-20T07:26:40;24.17;53.75
71098;SHT35;58754;47.622;-2.986;2023-07-20T07:29:05;24.20;53.73
71098;SHT35;58754;47.622;-2.986;2023-07-20T07:31:34;24.17;53.75
71098;SHT35;58754;47.622;-2.986;2023-07-20T07:34:01;24.17;53.79
71098;SHT35;58754;47.622;-2.986;2023-07-20T07:36:26;24.17;53.77
71098;SHT35;58754;47.622;-2.986;2023-07-20T07:38:52;24.15;53.78
71098;SHT35;58754;47.622;-2.986;2023-07-20T07:41:18;24.17;53.80
71098;SHT35;58754;47.622;-2.986;2023-07-20T07:43:43;24.15;53.80
71098;SHT35;58754;47.622;-2.986;2023-07-20T07:46:09;24.15;53.83
71098;SHT35;58754;47.622;-2.986;2023-07-20T07:48:35;24.15;53.78
71098;SHT35;58754;47.622;-2.986;2023-07-20T07:51:01;24.15;53.81
71098;SHT35;58754;47.622;-2.986;2023-07-20T07:53:26;24.17;53.81
71098;SHT35;58754;47.622;-2.986;2023-07-20T07:55:52;24.18;53.81
71098;SHT35;58754;47.622;-2.986;2023-07-20T07:58:18;24.17;53.85
71098;SHT35;58754;47.622;-2.986;2023-07-20T08:00:43;24.14;53.88
71098;SHT35;58754;47.622;-2.986;2023-07-20T08:03:10;24.17;53.84
71098;SHT35;58754;47.622;-2.986;2023-07-20T08:05:36;24.15;53.87
71098;SHT35;58754;47.622;-2.986;2023-07-20T08:08:02;24.17;53.87
71098;SHT35;58754;47.622;-2.986;2023-07-20T08:10:29;24.15;53.84
71098;SHT35;58754;47.622;-2.986;2023-07-20T08:12:55;24.15;53.82
71098;SHT35;58754;47.622;-2.986;2023-07-20T08:15:21;24.14;53.85
71098;SHT35;58754;47.622;-2.986;2023-07-20T08:17:46;24.15;53.86
71098;SHT35;58754;47.622;-2.986;2023-07-20T08:20:14;24.18;53.87
71098;SHT35;58754;47.622;-2.986;2023-07-20T08:22:41;24.20;53.86
71098;SHT35;58754;47.622;-2.986;2023-07-20T08:25:08;24.15;53.88
71098;SHT35;58754;47.622;-2.986;2023-07-20T08:27:34;24.14;53.84
71098;SHT35;58754;47.622;-2.986;2023-07-20T08:30:00;24.18;53.88
71098;SHT35;58754;47.622;-2.986;2023-07-20T08:32:26;24.18;53.92
71098;SHT35;58754;47.622;-2.986;2023-07-20T08:34:52;24.18;53.86
71098;SHT35;58754;47.622;-2.986;2023-07-20T08:37:18;24.17;53.84
71098;SHT35;58754;47.622;-2.986;2023-07-20T08:39:43;24.14;53.85
71098;SHT35;58754;47.622;-2.986;2023-07-20T08:42:10;24.15;53.88
71098;SHT35;58754;47.622;-2.986;2023-07-20T08:44:39;24.15;53.89
71098;SHT35;58754;47.622;-2.986;2023-07-20T08:47:06;24.17;53.85
71098;SHT35;58754;47.622;-2.986;2023-07-20T08:49:35;24.18;53.82
71098;SHT35;58754;47.622;-2.986;2023-07-20T08:52:01;24.15;53.89
71098;SHT35;58754;47.622;-2.986;2023-07-20T08:54:30;24.18;53.87
71098;SHT35;58754;47.622;-2.986;2023-07-20T08:57:03;24.15;53.86
71098;SHT35;58754;47.622;-2.986;2023-07-20T08:59:30;24.20;53.85
71098;SHT35;58754;47.622;-2.986;2023-07-20T09:01:59;24.17;53.88
71098;SHT35;58754;47.622;-2.986;2023-07-20T09:04:25;24.20;53.86
71098;SHT35;58754;47.622;-2.986;2023-07-20T09:06:51;24.18;53.90
71098;SHT35;58754;47.622;-2.986;2023-07-20T09:09:17;24.17;53.90
71098;SHT35;58754;47.622;-2.986;2023-07-20T09:11:46;24.18;53.88
71098;SHT35;58754;47.622;-2.986;2023-07-20T09:14:12;24.17;53.90
71098;SHT35;58754;47.622;-2.986;2023-07-20T09:16:54;24.17;53.92
71098;SHT35;58754;47.622;-2.986;2023-07-20T09:19:20;24.15;53.88
71098;SHT35;58754;47.622;-2.986;2023-07-20T09:21:51;24.17;53.88
71098;SHT35;58754;47.622;-2.986;2023-07-20T09:24:18;24.17;53.88
71098;SHT35;58754;47.622;-2.986;2023-07-20T09:26:46;24.17;53.87
71098;SHT35;58754;47.622;-2.986;2023-07-20T09:29:14;24.17;53.89
71098;SHT35;58754;47.622;-2.986;2023-07-20T09:31:39;24.15;53.88
71098;SHT35;58754;47.622;-2.986;2023-07-20T09:34:06;24.18;53.86
71098;SHT35;58754;47.622;-2.986;2023-07-20T09:36:38;24.17;53.86
71098;SHT35;58754;47.622;-2.986;2023-07-20T09:39:04;24.18;53.79
71098;SHT35;58754;47.622;-2.986;2023-07-20T09:41:35;24.18;53.82
71098;SHT35;58754;47.622;-2.986;2023-07-20T09:44:06;24.18;53.83
71098;SHT35;58754;47.622;-2.986;2023-07-20T09:46:48;24.20;53.80
71098;SHT35;58754;47.622;-2.986;2023-07-20T09:49:15;24.18;53.81
71098;SHT35;58754;47.622;-2.986;2023-07-20T09:51:44;24.18;53.90
71098;SHT35;58754;47.622;-2.986;2023-07-20T09:54:10;24.20;53.79
71098;SHT35;58754;47.622;-2.986;2023-07-20T09:56:37;24.17;53.84
71098;SHT35;58754;47.622;-2.986;2023-07-20T09:59:04;24.20;53.81
71098;SHT35;58754;47.622;-2.986;2023-07-20T10:01:32;24.21;53.75
71098;SHT35;58754;47.622;-2.986;2023-07-20T10:04:03;24.20;53.79
71098;SHT35;58754;47.622;-2.986;2023-07-20T10:06:32;24.20;53.77
71098;SHT35;58754;47.622;-2.986;2023-07-20T10:09:02;24.21;53.78
71098;SHT35;58754;47.622;-2.986;2023-07-20T10:11:35;24.21;53.74
71098;SHT35;58754;47.622;-2.986;2023-07-20T10:14:03;24.22;53.73
71098;SHT35;58754;47.622;-2.986;2023-07-20T10:16:34;24.21;53.72
71098;SHT35;58754;47.622;-2.986;2023-07-20T10:19:11;24.22;53.71
71098;SHT35;58754;47.622;-2.986;2023-07-20T10:21:42;24.22;53.71
71098;SHT35;58754;47.622;-2.986;2023-07-20T10:24:11;24.21;53.65
71098;SHT35;58754;47.622;-2.986;2023-07-20T10:26:37;24.25;53.64
71098;SHT35;58754;47.622;-2.986;2023-07-20T10:29:03;24.24;53.67
71098;SHT35;58754;47.622;-2.986;2023-07-20T10:31:30;24.22;53.65
71098;SHT35;58754;47.622;-2.986;2023-07-20T10:33:59;24.24;53.66
71098;SHT35;58754;47.622;-2.986;2023-07-20T10:36:26;24.22;53.64
71098;SHT35;58754;47.622;-2.986;2023-07-20T10:38:56;24.25;53.62
71098;SHT35;58754;47.622;-2.986;2023-07-20T10:41:40;24.25;53.66
71098;SHT35;58754;47.622;-2.986;2023-07-20T10:44:09;24.26;53.63
71098;SHT35;58754;47.622;-2.986;2023-07-20T10:49:05;24.24;53.63
71098;SHT35;58754;47.622;-2.986;2023-07-20T10:51:45;24.25;53.60
71098;SHT35;58754;47.622;-2.986;2023-07-20T10:56:46;24.24;53.54
71098;SHT35;58754;47.622;-2.986;2023-07-20T11:01:48;24.25;53.51
71098;SHT35;58754;47.622;-2.986;2023-07-20T11:04:15;24.25;53.51
71098;SHT35;58754;47.622;-2.986;2023-07-20T11:06:54;24.24;53.46
71098;SHT35;58754;47.622;-2.986;2023-07-20T11:09:22;24.26;53.43
71098;SHT35;58754;47.622;-2.986;2023-07-20T11:12:11;24.28;53.45
71098;SHT35;58754;47.622;-2.986;2023-07-20T11:14:43;24.25;53.42
71098;SHT35;58754;47.622;-2.986;2023-07-20T11:17:14;24.28;53.42
71098;SHT35;58754;47.622;-2.986;2023-07-20T11:19:41;24.26;53.40
71098;SHT35;58754;47.622;-2.986;2023-07-20T11:22:07;24.26;53.39
71098;SHT35;58754;47.622;-2.986;2023-07-20T11:24:34;24.28;53.36
71098;SHT35;58754;47.622;-2.986;2023-07-20T11:27:00;24.26;53.30
71098;SHT35;58754;47.622;-2.986;2023-07-20T11:29:29;24.28;53.28
71098;SHT35;58754;47.622;-2.986;2023-07-20T11:31:56;24.28;53.34
71098;SHT35;58754;47.622;-2.986;2023-07-20T11:34:22;24.28;53.28
71098;SHT35;58754;47.622;-2.986;2023-07-20T11:36:49;24.28;53.27
71098;SHT35;58754;47.622;-2.986;2023-07-20T11:39:20;24.28;53.24
71098;SHT35;58754;47.622;-2.986;2023-07-20T11:41:57;24.28;53.26
71098;SHT35;58754;47.622;-2.986;2023-07-20T11:44:24;24.25;53.24
71098;SHT35;58754;47.622;-2.986;2023-07-20T11:47:05;24.29;53.24
71098;SHT35;58754;47.622;-2.986;2023-07-20T11:49:42;24.26;53.21
71098;SHT35;58754;47.622;-2.986;2023-07-20T11:52:13;24.26;53.20
71098;SHT35;58754;47.622;-2.986;2023-07-20T11:54:41;24.29;53.19
71098;SHT35;58754;47.622;-2.986;2023-07-20T11:57:19;24.26;53.15
71098;SHT35;58754;47.622;-2.986;2023-07-20T11:59:55;24.24;53.19
71098;SHT35;58754;47.622;-2.986;2023-07-20T12:02:24;24.26;53.14
71098;SHT35;58754;47.622;-2.986;2023-07-20T12:04:54;24.28;53.15
71098;SHT35;58754;47.622;-2.986;2023-07-20T12:07:20;24.26;53.05
71098;SHT35;58754;47.622;-2.986;2023-07-20T12:10:12;24.25;53.11
71098;SHT35;58754;47.622;-2.986;2023-07-20T12:12:39;24.26;53.08
71098;SHT35;58754;47.622;-2.986;2023-07-20T12:15:32;24.28;53.09
71098;SHT35;58754;47.622;-2.986;2023-07-20T12:18:00;24.29;53.06
71098;SHT35;58754;47.622;-2.986;2023-07-20T12:20:34;24.29;53.00
71098;SHT35;58754;47.622;-2.986;2023-07-20T12:23:05;24.26;53.06
71098;SHT35;58754;47.622;-2.986;2023-07-20T12:25:43;24.28;52.98
71098;SHT35;58754;47.622;-2.986;2023-07-20T12:28:14;24.31;53.00
71098;SHT35;58754;47.622;-2.986;2023-07-20T12:30:41;24.26;52.95
71098;SHT35;58754;47.622;-2.986;2023-07-20T12:33:07;24.28;52.92
71098;SHT35;58754;47.622;-2.986;2023-07-20T12:35:34;24.26;52.92
71098;SHT35;58754;47.622;-2.986;2023-07-20T12:38:00;24.26;52.90
71098;SHT35;58754;47.622;-2.986;2023-07-20T12:40:27;24.28;52.92
71098;SHT35;58754;47.622;-2.986;2023-07-20T12:42:52;24.28;52.96
71098;SHT35;58754;47.622;-2.986;2023-07-20T12:45:18;24.26;52.91
71098;SHT35;58754;47.622;-2.986;2023-07-20T12:47:44;24.29;52.87
71098;SHT35;58754;47.622;-2.986;2023-07-20T12:50:10;24.31;52.89
71098;SHT35;58754;47.622;-2.986;2023-07-20T12:52:37;24.26;52.92
71098;SHT35;58754;47.622;-2.986;2023-07-20T12:55:07;24.28;52.92
71098;SHT35;58754;47.622;-2.986;2023-07-20T12:57:37;24.29;52.91
71098;SHT35;58754;47.622;-2.986;2023-07-20T13:00:04;24.29;52.94
71098;SHT35;58754;47.622;-2.986;2023-07-20T13:02:31;24.29;52.91
71098;SHT35;58754;47.622;-2.986;2023-07-20T13:04:58;24.29;52.92
71098;SHT35;58754;47.622;-2.986;2023-07-20T13:07:37;24.31;52.93
71098;SHT35;58754;47.622;-2.986;2023-07-20T13:10:05;24.28;52.99
71098;SHT35;58754;47.622;-2.986;2023-07-20T13:12:34;24.28;52.92
71098;SHT35;58754;47.622;-2.986;2023-07-20T13:15:05;24.31;52.96
71098;SHT35;58754;47.622;-2.986;2023-07-20T13:17:32;24.29;52.95
71098;SHT35;58754;47.622;-2.986;2023-07-20T13:19:58;24.28;52.90
71098;SHT35;58754;47.622;-2.986;2023-07-20T13:22:24;24.32;52.89
71098;SHT35;58754;47.622;-2.986;2023-07-20T13:24:50;24.32;52.87
71098;SHT35;58754;47.622;-2.986;2023-07-20T13:27:16;24.31;52.88
71098;SHT35;58754;47.622;-2.986;2023-07-20T13:29:42;24.28;52.98
71098;SHT35;58754;47.622;-2.986;2023-07-20T13:32:09;24.33;52.92
71098;SHT35;58754;47.622;-2.986;2023-07-20T13:34:35;24.31;52.93
71098;SHT35;58754;47.622;-2.986;2023-07-20T13:37:01;24.31;52.94
71098;SHT35;58754;47.622;-2.986;2023-07-20T13:39:27;24.32;52.93
71098;SHT35;58754;47.622;-2.986;2023-07-20T13:41:54;24.33;52.93
71098;SHT35;58754;47.622;-2.986;2023-07-20T13:44:20;24.35;52.96
71098;SHT35;58754;47.622;-2.986;2023-07-20T13:46:50;24.32;52.92
71098;SHT35;58754;47.622;-2.986;2023-07-20T13:49:15;24.32;52.96
71098;SHT35;58754;47.622;-2.986;2023-07-20T13:51:41;24.32;52.96
71098;SHT35;58754;47.622;-2.986;2023-07-20T13:54:08;24.35;52.98
71098;SHT35;58754;47.622;-2.986;2023-07-20T13:56:34;24.32;52.99
71098;SHT35;58754;47.622;-2.986;2023-07-20T13:59:00;24.35;53.00
71098;SHT35;58754;47.622;-2.986;2023-07-20T14:01:26;24.32;53.02
71098;SHT35;58754;47.622;-2.986;2023-07-20T14:03:55;24.32;53.04
71098;SHT35;58754;47.622;-2.986;2023-07-20T14:06:21;24.33;53.04
71098;SHT35;58754;47.622;-2.986;2023-07-20T14:08:47;24.36;53.09
71098;SHT35;58754;47.622;-2.986;2023-07-20T14:11:14;24.35;53.09
71098;SHT35;58754;47.622;-2.986;2023-07-20T14:13:40;24.35;53.09
71098;SHT35;58754;47.622;-2.986;2023-07-20T14:16:06;24.35;53.11
71098;SHT35;58754;47.622;-2.986;2023-07-20T14:18:32;24.36;53.09
71098;SHT35;58754;47.622;-2.986;2023-07-20T14:20:58;24.33;53.15
71098;SHT35;58754;47.622;-2.986;2023-07-20T14:23:24;24.36;53.15
71098;SHT35;58754;47.622;-2.986;2023-07-20T14:25:50;24.38;53.17
71098;SHT35;58754;47.622;-2.986;2023-07-20T14:28:16;24.38;53.20
71098;SHT35;58754;47.622;-2.986;2023-07-20T14:30:42;24.36;53.18
71098;SHT35;58754;47.622;-2.986;2023-07-20T14:33:08;24.38;53.23
71098;SHT35;58754;47.622;-2.986;2023-07-20T14:35:34;24.38;53.25
71098;SHT35;58754;47.622;-2.986;2023-07-20T14:38:00;24.38;53.27
71098;SHT35;58754;47.622;-2.986;2023-07-20T14:40:26;24.36;53.24
71098;SHT35;58754;47.622;-2.986;2023-07-20T14:42:52;24.38;53.25
71098;SHT35;58754;47.622;-2.986;2023-07-20T14:45:18;24.36;53.31
71098;SHT35;58754;47.622;-2.986;2023-07-20T14:47:44;24.38;53.32
71098;SHT35;58754;47.622;-2.986;2023-07-20T14:50:10;24.38;53.30
71098;SHT35;58754;47.622;-2.986;2023-07-20T14:52:36;24.39;53.35
71098;SHT35;58754;47.622;-2.986;2023-07-20T14:55:02;24.39;53.35
71098;SHT35;58754;47.622;-2.986;2023-07-20T14:57:28;24.39;53.31
71098;SHT35;58754;47.622;-2.986;2023-07-20T14:59:54;24.39;53.33
71098;SHT35;58754;47.622;-2.986;2023-07-20T15:02:20;24.39;53.33
71098;SHT35;58754;47.622;-2.986;2023-07-20T15:04:50;24.39;53.40
71098;SHT35;58754;47.622;-2.986;2023-07-20T15:07:20;24.38;53.41
71098;SHT35;58754;47.622;-2.986;2023-07-20T15:09:47;24.40;53.41
71098;SHT35;58754;47.622;-2.986;2023-07-20T15:12:13;24.39;53.43
71098;SHT35;58754;47.622;-2.986;2023-07-20T15:14:43;24.39;53.42
71098;SHT35;58754;47.622;-2.986;2023-07-20T15:17:09;24.39;53.50
71098;SHT35;58754;47.622;-2.986;2023-07-20T15:19:35;24.39;53.45
71098;SHT35;58754;47.622;-2.986;2023-07-20T15:22:02;24.38;53.51
71098;SHT35;58754;47.622;-2.986;2023-07-20T15:24:32;24.40;53.51
71098;SHT35;58754;47.622;-2.986;2023-07-20T15:26:58;24.40;53.51
71098;SHT35;58754;47.622;-2.986;2023-07-20T15:29:24;24.42;53.50